Huttig, Arkansas
Current Conditions -  °F | °C
As of 10:35 AM on Thursday 23 Oct 2014 (Local Time) from KBQP Reporting Station
Clear Clear  
Wind Chill: 60°   Ceiling: Unl
Heat Index: 60°   Visibility: 10mi
Dew Point: 49°   Wind: 5mph
Humidity: 66%   Direction: 50°NE
Pressure: 30.19"   Gusts: NA
Location:  33.04°N, 92.18°W
Report Text: KBQP 231535Z AUTO 05004KT 10SM CLR 16/09 A3019 RMK AO2 T01570094
Loading
Personal Weather Stations






























Interactive Weather Map
Tropical Storm Tracking
New forecast layout! Learn more

10-Day Weather Forecast

Advertisements
Track Severe Weather on mobile